Time;durP1;ratioP1;P1;durP2;ratioP2;P2;SDS_P1;SDS_P2;PMS_P1;PMS_P2;Temp;Humidity;BMP_temperature;BMP_pressure;BME280_temperature;BME280_humidity;BME280_pressure;Samples;Min_cycle;Max_cycle;Signal;HPM_P1;HPM_P2
2023/01/11 00:01:56;;;;;;;0.55;0.40;;;9.20;99.90;;;;;;4955435;28;20055;-77
2023/01/11 00:04:28;;;;;;;2.35;0.95;;;9.20;99.90;;;;;;4955238;28;20051;-78
2023/01/11 00:06:56;;;;;;;0.55;0.30;;;9.20;99.90;;;;;;4955017;28;20058;-77
2023/01/11 00:09:23;;;;;;;0.70;0.70;;;9.20;99.90;;;;;;4955625;28;20074;-77
2023/01/11 00:11:50;;;;;;;1.45;0.60;;;9.20;99.90;;;;;;4955481;28;20083;-77
2023/01/11 00:14:17;;;;;;;0.85;0.40;;;9.20;99.90;;;;;;4955013;28;20058;-77
2023/01/11 00:16:43;;;;;;;1.48;0.50;;;9.20;99.90;;;;;;4954253;29;20062;-77
2023/01/11 00:19:10;;;;;;;0.85;0.60;;;9.20;99.90;;;;;;4955361;28;20048;-77
2023/01/11 00:21:37;;;;;;;2.50;0.70;;;9.20;99.90;;;;;;4955258;28;20047;-77
2023/01/11 00:24:04;;;;;;;3.08;0.73;;;9.20;99.90;;;;;;4955004;28;20076;-77
2023/01/11 00:26:31;;;;;;;2.70;0.50;;;9.20;99.90;;;;;;4954416;29;20055;-77
2023/01/11 00:28:58;;;;;;;1.85;0.50;;;9.20;99.90;;;;;;4954893;29;20409;-78
2023/01/11 00:31:24;;;;;;;1.38;0.43;;;9.20;99.90;;;;;;4956887;29;20057;-78
2023/01/11 00:33:51;;;;;;;2.35;0.60;;;9.30;99.90;;;;;;4958128;29;20051;-77
2023/01/11 00:36:18;;;;;;;1.10;0.50;;;9.30;99.90;;;;;;4957671;28;20051;-78
2023/01/11 00:38:50;;;;;;;0.85;0.50;;;9.30;99.90;;;;;;4956051;28;20043;-77
2023/01/11 00:49:36;;;;;;;1.88;0.35;;;9.30;99.90;;;;;;4957468;29;20058;-77
2023/01/11 00:52:08;;;;;;;0.50;0.40;;;9.30;99.90;;;;;;4957670;28;20055;-78
2023/01/11 00:54:36;;;;;;;0.47;0.40;;;9.30;99.90;;;;;;4957753;28;20102;-77
2023/01/11 00:57:05;;;;;;;0.95;0.50;;;9.30;99.90;;;;;;4953829;29;20058;-77
2023/01/11 00:59:38;;;;;;;1.27;0.60;;;9.30;99.90;;;;;;4956133;28;20425;-77
2023/01/11 01:02:05;;;;;;;1.45;0.40;;;9.30;99.90;;;;;;4955196;29;20055;-77
2023/01/11 01:04:32;;;;;;;0.75;0.30;;;9.30;99.90;;;;;;4951415;29;20055;-77
2023/01/11 01:06:58;;;;;;;0.93;0.32;;;9.30;99.90;;;;;;4951726;29;20055;-78
2023/01/11 01:09:25;;;;;;;2.30;0.40;;;9.30;99.90;;;;;;4953282;29;20074;-77
2023/01/11 01:11:52;;;;;;;1.13;0.43;;;9.30;99.90;;;;;;4954540;28;20058;-77
2023/01/11 01:14:25;;;;;;;1.90;0.40;;;9.30;99.90;;;;;;4954287;28;20071;-77
2023/01/11 01:16:53;;;;;;;0.55;0.32;;;9.40;99.90;;;;;;4954749;28;20083;-78
2023/01/11 01:19:21;;;;;;;0.50;0.40;;;9.40;99.90;;;;;;4954439;28;20051;-77
2023/01/11 01:21:50;;;;;;;0.43;0.40;;;9.30;99.90;;;;;;4954324;28;20134;-77
2023/01/11 01:24:17;;;;;;;1.10;0.40;;;9.40;99.90;;;;;;4954718;29;20055;-77
2023/01/11 01:26:44;;;;;;;1.60;0.45;;;9.40;99.90;;;;;;4953321;29;20061;-77
2023/01/11 01:29:12;;;;;;;0.90;0.40;;;9.40;99.90;;;;;;4953745;28;20047;-77
2023/01/11 01:31:39;;;;;;;0.30;0.30;;;9.40;99.90;;;;;;4953697;28;20129;-78
2023/01/11 01:34:07;;;;;;;0.63;0.50;;;9.40;99.90;;;;;;4950700;29;20452;-77
2023/01/11 01:36:34;;;;;;;0.50;0.35;;;9.40;99.90;;;;;;4952294;29;20051;-77
2023/01/11 01:39:02;;;;;;;2.10;0.60;;;9.40;99.90;;;;;;4953714;28;20132;-77
2023/01/11 01:41:29;;;;;;;1.75;0.45;;;9.40;99.90;;;;;;4953878;28;20130;-77
2023/01/11 01:43:58;;;;;;;1.27;0.30;;;9.40;99.90;;;;;;4953523;29;20047;-77
2023/01/11 01:46:30;;;;;;;0.60;0.40;;;9.40;99.90;;;;;;4954553;28;20051;-77
2023/01/11 01:49:07;;;;;;;0.70;0.30;;;9.40;99.90;;;;;;4953021;28;20066;-77
2023/01/11 01:51:47;;;;;;;0.40;0.40;;;9.40;99.90;;;;;;4956932;29;20055;-77
2023/01/11 01:54:22;;;;;;;0.40;0.20;;;9.40;99.90;;;;;;4957052;29;20050;-77
2023/01/11 01:56:55;;;;;;;1.95;0.40;;;9.50;99.90;;;;;;4958335;28;20485;-77
2023/01/11 01:59:25;;;;;;;0.40;0.40;;;9.50;99.90;;;;;;4947199;29;20052;-77
2023/01/11 02:01:51;;;;;;;0.38;0.35;;;9.50;99.90;;;;;;4956964;29;20047;-77
2023/01/11 02:04:28;;;;;;;1.60;0.30;;;9.50;99.90;;;;;;4958131;28;20102;-77
2023/01/11 02:07:03;;;;;;;0.52;0.38;;;9.50;99.90;;;;;;4958245;28;20066;-77
2023/01/11 02:09:57;;;;;;;0.57;0.35;;;9.60;99.90;;;;;;4958268;29;20055;-78
2023/01/11 02:12:26;;;;;;;0.95;0.28;;;9.60;99.90;;;;;;4958060;29;20051;-78
2023/01/11 02:14:58;;;;;;;0.50;0.25;;;9.60;99.90;;;;;;4957919;28;20059;-77
2023/01/11 02:17:25;;;;;;;0.38;0.28;;;9.60;99.90;;;;;;4958134;29;20402;-77
2023/01/11 02:20:07;;;;;;;0.20;0.20;;;9.60;99.90;;;;;;4958249;28;20070;-77
2023/01/11 02:23:10;;;;;;;1.17;0.28;;;9.60;99.90;;;;;;4957207;29;20122;-78
2023/01/11 02:25:56;;;;;;;0.68;0.20;;;9.70;99.90;;;;;;4953421;29;20051;-78
2023/01/11 02:28:40;;;;;;;0.73;0.10;;;9.70;99.90;;;;;;4957058;29;20054;-77
2023/01/11 02:31:27;;;;;;;0.73;0.20;;;9.80;99.90;;;;;;4957087;29;20063;-77
2023/01/11 02:34:08;;;;;;;0.32;0.20;;;9.80;99.90;;;;;;4956515;29;20520;-77
2023/01/11 02:36:53;;;;;;;0.40;0.30;;;9.80;99.90;;;;;;4954983;29;20047;-77
2023/01/11 02:39:37;;;;;;;0.70;0.20;;;9.90;99.90;;;;;;4957209;28;20471;-77
2023/01/11 02:45:36;;;;;;;1.55;0.30;;;10.00;99.90;;;;;;4956514;29;20055;-77
2023/01/11 02:48:18;;;;;;;0.20;0.20;;;10.10;99.90;;;;;;4956297;29;20058;-77
2023/01/11 02:51:10;;;;;;;0.55;0.20;;;10.10;99.90;;;;;;4956453;29;20476;-77
2023/01/11 02:53:43;;;;;;;0.20;0.20;;;10.10;99.90;;;;;;4956780;29;20047;-77
2023/01/11 02:56:14;;;;;;;0.13;0.13;;;10.10;99.90;;;;;;4957278;28;20071;-77
2023/01/11 02:58:45;;;;;;;1.00;0.25;;;10.10;99.90;;;;;;4957171;29;20054;-77
2023/01/11 03:01:12;;;;;;;0.43;0.40;;;10.10;99.90;;;;;;4956045;28;20401;-77
2023/01/11 03:03:39;;;;;;;0.20;0.20;;;10.10;99.90;;;;;;4956668;28;20051;-77
2023/01/11 03:06:11;;;;;;;0.55;0.30;;;10.20;99.90;;;;;;4953710;29;20117;-77
2023/01/11 03:09:03;;;;;;;0.20;0.20;;;10.20;99.90;;;;;;4956696;29;20055;-77
2023/01/11 03:15:04;;;;;;;0.20;0.20;;;10.20;99.90;;;;;;4955191;28;20583;-77
2023/01/11 03:17:59;;;;;;;0.30;0.30;;;10.20;99.90;;;;;;4956734;29;20047;-77
2023/01/11 03:20:28;;;;;;;1.65;0.20;;;10.20;99.90;;;;;;4953719;28;20051;-80
2023/01/11 03:23:11;;;;;;;0.10;0.10;;;10.20;99.90;;;;;;4954871;29;20493;-78
2023/01/11 03:26:00;;;;;;;0.10;0.10;;;10.20;99.90;;;;;;4955653;29;20125;-78
2023/01/11 03:28:33;;;;;;;0.67;0.30;;;10.20;99.90;;;;;;4952936;29;20058;-77
2023/01/11 03:31:16;;;;;;;0.77;0.20;;;10.20;99.90;;;;;;4956182;28;20057;-77
2023/01/11 03:33:59;;;;;;;0.52;0.28;;;10.20;99.90;;;;;;4953360;29;20110;-77
2023/01/11 03:36:34;;;;;;;0.80;0.30;;;10.20;99.90;;;;;;4956365;29;20047;-77
2023/01/11 03:39:16;;;;;;;0.73;0.30;;;10.20;99.90;;;;;;4954728;29;20059;-77
2023/01/11 03:41:44;;;;;;;0.95;0.40;;;10.20;99.90;;;;;;4951844;29;20055;-77
2023/01/11 03:44:13;;;;;;;1.08;0.30;;;10.20;99.90;;;;;;4956216;28;20059;-77
2023/01/11 03:46:47;;;;;;;0.80;0.30;;;10.20;99.90;;;;;;4955530;29;20059;-77
2023/01/11 03:49:29;;;;;;;0.32;0.30;;;10.20;99.90;;;;;;4954176;29;20055;-77
2023/01/11 03:51:59;;;;;;;0.25;0.20;;;10.10;99.90;;;;;;4955569;29;20055;-77
2023/01/11 03:54:29;;;;;;;0.45;0.30;;;10.20;99.90;;;;;;4955922;29;20417;-77
2023/01/11 03:57:21;;;;;;;0.20;0.20;;;10.10;99.90;;;;;;4956126;28;20138;-77
2023/01/11 03:59:48;;;;;;;2.45;0.20;;;10.10;99.90;;;;;;4955985;28;20047;-77
2023/01/11 04:02:20;;;;;;;0.20;0.20;;;10.10;99.90;;;;;;4955664;28;20043;-77
2023/01/11 04:04:47;;;;;;;1.35;0.47;;;10.20;99.90;;;;;;4955436;28;20047;-77
2023/01/11 04:07:14;;;;;;;0.40;0.20;;;10.10;99.90;;;;;;4955583;28;20070;-77
2023/01/11 04:09:40;;;;;;;0.20;0.20;;;10.10;99.90;;;;;;4955836;28;20051;-77
2023/01/11 04:12:07;;;;;;;0.20;0.20;;;10.10;99.90;;;;;;4946530;28;20055;-78
2023/01/11 04:14:34;;;;;;;1.35;0.90;;;10.10;99.90;;;;;;4966434;28;20105;-77
2023/01/11 04:17:01;;;;;;;0.60;0.60;;;10.10;99.90;;;;;;4955485;28;20083;-77
2023/01/11 04:19:27;;;;;;;0.38;0.30;;;10.10;99.90;;;;;;4954930;28;20515;-77
2023/01/11 04:21:54;;;;;;;0.43;0.30;;;10.10;99.90;;;;;;4954474;28;20497;-77
2023/01/11 04:24:21;;;;;;;0.25;0.20;;;10.20;99.90;;;;;;4954737;28;20413;-77
2023/01/11 04:26:47;;;;;;;0.63;0.30;;;10.20;99.90;;;;;;4954882;28;20065;-77
2023/01/11 04:29:14;;;;;;;1.40;0.30;;;10.20;99.90;;;;;;4955349;28;20051;-77
2023/01/11 04:31:41;;;;;;;1.85;0.40;;;10.20;99.90;;;;;;4954102;29;20055;-78
2023/01/11 04:34:07;;;;;;;1.95;0.70;;;10.20;99.90;;;;;;4954671;28;20055;-77
2023/01/11 04:36:34;;;;;;;0.47;0.40;;;10.20;99.90;;;;;;4955143;28;20051;-77
2023/01/11 04:39:01;;;;;;;1.77;0.40;;;10.20;99.90;;;;;;4955266;28;20047;-77
2023/01/11 04:44:12;;;;;;;1.23;0.30;;;10.20;99.90;;;;;;4952131;29;20047;-77
2023/01/11 04:46:39;;;;;;;0.88;0.50;;;10.20;99.90;;;;;;4954998;28;20055;-77
2023/01/11 04:49:06;;;;;;;0.50;0.50;;;10.20;99.90;;;;;;4954818;28;20055;-77
2023/01/11 04:51:32;;;;;;;0.60;0.40;;;10.20;99.90;;;;;;4954463;28;20509;-77
2023/01/11 04:53:59;;;;;;;0.65;0.30;;;10.20;99.90;;;;;;4954859;28;20416;-77
2023/01/11 04:56:26;;;;;;;1.63;0.93;;;10.20;99.90;;;;;;4955123;28;20138;-77
2023/01/11 04:58:53;;;;;;;0.30;0.30;;;10.20;99.90;;;;;;4955232;28;20055;-78
2023/01/11 05:01:20;;;;;;;0.57;0.40;;;10.20;99.90;;;;;;4952528;29;20513;-77
2023/01/11 05:03:47;;;;;;;0.20;0.20;;;10.20;99.90;;;;;;4954771;28;20086;-79
2023/01/11 05:06:14;;;;;;;0.35;0.30;;;10.20;99.90;;;;;;4955624;28;20472;-78
2023/01/11 05:08:45;;;;;;;0.38;0.30;;;10.20;99.90;;;;;;4958715;29;20051;-77
2023/01/11 05:11:12;;;;;;;0.60;0.60;;;10.20;99.90;;;;;;4954542;29;20055;-78
2023/01/11 05:13:41;;;;;;;1.45;0.40;;;10.20;99.90;;;;;;4961006;29;20420;-78
2023/01/11 05:16:25;;;;;;;0.23;0.23;;;10.20;99.90;;;;;;4961321;28;20130;-78
2023/01/11 05:18:57;;;;;;;1.00;0.40;;;10.10;99.90;;;;;;4957770;29;20055;-78
2023/01/11 05:21:26;;;;;;;1.48;0.57;;;10.10;99.90;;;;;;4954090;29;20055;-77
2023/01/11 05:23:53;;;;;;;1.20;0.40;;;10.10;99.90;;;;;;4954543;28;20051;-77
2023/01/11 05:26:26;;;;;;;0.73;0.25;;;10.10;99.90;;;;;;4954247;28;20055;-78
2023/01/11 05:28:58;;;;;;;0.57;0.40;;;10.10;99.90;;;;;;4954804;28;20143;-77
2023/01/11 05:31:25;;;;;;;1.50;0.50;;;10.10;99.90;;;;;;4953784;29;20058;-77
2023/01/11 05:33:54;;;;;;;0.30;0.30;;;10.10;99.90;;;;;;4954402;28;20047;-77
2023/01/11 05:36:23;;;;;;;0.85;0.30;;;10.10;99.90;;;;;;4954303;28;20047;-77
2023/01/11 05:38:51;;;;;;;0.55;0.40;;;10.10;99.90;;;;;;4954855;28;20054;-77
2023/01/11 05:41:20;;;;;;;1.55;0.30;;;10.10;99.90;;;;;;4954372;29;20051;-78
2023/01/11 05:46:35;;;;;;;0.30;0.30;;;10.10;99.90;;;;;;4955038;29;20435;-77
2023/01/11 05:49:03;;;;;;;1.90;0.40;;;10.10;99.90;;;;;;4954466;28;20051;-77
2023/01/11 05:51:31;;;;;;;1.98;0.30;;;10.10;99.90;;;;;;4952957;29;20055;-78
2023/01/11 05:53:59;;;;;;;1.27;0.50;;;10.10;99.90;;;;;;4954617;28;20052;-78
2023/01/11 05:56:26;;;;;;;1.88;0.40;;;10.10;99.90;;;;;;4965226;28;20054;-78
2023/01/11 05:58:53;;;;;;;1.08;0.70;;;10.10;99.90;;;;;;4955337;28;20051;-78
2023/01/11 06:01:21;;;;;;;1.35;0.43;;;10.20;99.90;;;;;;4955317;28;20086;-78
2023/01/11 06:03:48;;;;;;;0.98;0.40;;;10.20;99.90;;;;;;4954663;28;20059;-78
2023/01/11 06:06:15;;;;;;;0.65;0.40;;;10.20;99.90;;;;;;4954875;28;20142;-78
2023/01/11 06:08:42;;;;;;;1.45;0.30;;;10.20;99.90;;;;;;4955209;29;20051;-77
2023/01/11 06:11:09;;;;;;;0.63;0.43;;;10.20;99.90;;;;;;4954156;29;20069;-78
2023/01/11 06:13:36;;;;;;;0.38;0.38;;;10.20;99.90;;;;;;4954246;29;20049;-78
2023/01/11 06:16:05;;;;;;;0.52;0.30;;;10.30;99.90;;;;;;4952087;29;20138;-78
2023/01/11 06:18:35;;;;;;;2.30;0.47;;;10.30;99.90;;;;;;4953482;28;20050;-77
2023/01/11 06:21:03;;;;;;;1.60;0.40;;;10.30;99.90;;;;;;4953633;28;20292;-77
2023/01/11 06:23:31;;;;;;;0.20;0.20;;;10.30;99.90;;;;;;4953714;28;20142;-78
2023/01/11 06:26:02;;;;;;;1.10;0.20;;;10.30;99.90;;;;;;4954863;28;20055;-77
2023/01/11 06:28:29;;;;;;;1.38;0.40;;;10.30;99.90;;;;;;4954470;28;20063;-77
2023/01/11 06:30:57;;;;;;;1.20;0.50;;;10.30;99.90;;;;;;4954955;29;20083;-77
2023/01/11 06:33:26;;;;;;;2.15;0.50;;;10.30;99.90;;;;;;4953557;28;20059;-77
2023/01/11 06:35:53;;;;;;;1.77;0.82;;;10.40;99.90;;;;;;4955223;28;20058;-78
2023/01/11 06:38:20;;;;;;;3.80;1.25;;;10.40;99.90;;;;;;4955563;29;20062;-77
2023/01/11 06:40:56;;;;;;;4.00;1.38;;;10.40;99.90;;;;;;4958058;28;20050;-78
2023/01/11 06:43:24;;;;;;;1.52;0.47;;;10.40;99.90;;;;;;4950763;28;20057;-77
2023/01/11 06:45:51;;;;;;;1.35;0.40;;;10.40;99.90;;;;;;4957229;29;20051;-77
2023/01/11 06:48:19;;;;;;;1.17;0.30;;;10.40;99.90;;;;;;4960202;28;20443;-78
2023/01/11 06:50:47;;;;;;;0.65;0.28;;;10.40;99.90;;;;;;4960396;28;20146;-75
2023/01/11 06:53:14;;;;;;;0.20;0.20;;;10.40;99.90;;;;;;4955788;29;20051;-75
2023/01/11 06:55:41;;;;;;;1.85;0.30;;;10.40;99.90;;;;;;4955016;28;20424;-76
2023/01/11 06:58:08;;;;;;;0.20;0.20;;;10.40;99.90;;;;;;4950513;28;20047;-76
2023/01/11 07:00:35;;;;;;;0.80;0.30;;;10.40;99.90;;;;;;4968382;28;20055;-75
2023/01/11 07:03:03;;;;;;;0.38;0.30;;;10.50;99.90;;;;;;4951929;29;20086;-76
2023/01/11 07:05:34;;;;;;;0.63;0.30;;;10.50;99.90;;;;;;4956504;28;20047;-78
2023/01/11 07:08:01;;;;;;;2.35;0.47;;;10.50;99.90;;;;;;4958292;29;20047;-75
2023/01/11 07:10:28;;;;;;;2.05;0.30;;;10.50;99.90;;;;;;4953913;29;20047;-75
2023/01/11 07:12:54;;;;;;;0.20;0.20;;;10.50;99.90;;;;;;4954445;28;20055;-76
2023/01/11 07:15:22;;;;;;;1.10;0.30;;;10.50;99.90;;;;;;4953556;28;20051;-75
2023/01/11 07:17:55;;;;;;;0.30;0.30;;;10.50;99.90;;;;;;4953808;29;20393;-76
2023/01/11 07:20:23;;;;;;;0.30;0.30;;;10.60;99.90;;;;;;4953380;28;20043;-76
2023/01/11 07:22:50;;;;;;;0.20;0.20;;;10.60;99.90;;;;;;4954813;28;20051;-75
2023/01/11 07:25:17;;;;;;;0.55;0.30;;;10.60;99.90;;;;;;4953174;29;20050;-76
2023/01/11 07:27:44;;;;;;;0.20;0.20;;;10.60;99.90;;;;;;4955027;28;20126;-76
2023/01/11 07:30:11;;;;;;;0.20;0.20;;;10.60;99.90;;;;;;4953404;28;20078;-76
2023/01/11 07:32:38;;;;;;;0.20;0.20;;;10.60;99.90;;;;;;4953636;29;20051;-76
2023/01/11 07:35:05;;;;;;;0.30;0.20;;;10.70;99.90;;;;;;4956150;28;20138;-75
2023/01/11 07:37:33;;;;;;;0.20;0.20;;;10.70;99.90;;;;;;4959322;28;20059;-76
2023/01/11 07:39:59;;;;;;;0.52;0.30;;;10.80;99.90;;;;;;4952087;29;20074;-75
2023/01/11 07:45:11;;;;;;;0.20;0.20;;;10.80;99.90;;;;;;4954244;29;20050;-76
2023/01/11 07:47:38;;;;;;;0.28;0.25;;;10.90;99.90;;;;;;4954804;28;20051;-76
2023/01/11 07:50:06;;;;;;;0.30;0.30;;;10.90;99.90;;;;;;4951162;28;20149;-76
2023/01/11 07:52:32;;;;;;;0.77;0.40;;;10.90;99.90;;;;;;4954351;28;20051;-76
2023/01/11 07:55:01;;;;;;;0.10;0.10;;;10.90;99.90;;;;;;4954113;29;20051;-76
2023/01/11 07:57:31;;;;;;;1.08;0.22;;;10.90;99.90;;;;;;4954932;29;20051;-76
2023/01/11 07:59:58;;;;;;;;;;;10.90;99.90;;;;;;4953480;29;20043;-76
2023/01/11 08:02:25;;;;;;;0.20;0.20;;;11.00;99.90;;;;;;4953684;29;19930;-77
2023/01/11 08:04:52;;;;;;;0.35;0.30;;;11.00;99.90;;;;;;4953280;29;20054;-76
2023/01/11 08:07:18;;;;;;;1.25;0.30;;;11.00;99.90;;;;;;4954455;29;20058;-78
2023/01/11 08:09:45;;;;;;;0.90;0.30;;;11.00;99.90;;;;;;4950845;29;20646;-76
2023/01/11 08:14:57;;;;;;;0.65;0.30;;;11.00;99.90;;;;;;4954839;29;20055;-76
2023/01/11 08:17:23;;;;;;;0.38;0.28;;;11.00;99.90;;;;;;4953491;29;20058;-76
2023/01/11 08:19:50;;;;;;;0.22;0.22;;;11.00;99.90;;;;;;4954466;28;20051;-76
2023/01/11 08:22:17;;;;;;;0.77;0.25;;;11.10;99.90;;;;;;4962682;28;20444;-76
2023/01/11 08:24:43;;;;;;;1.00;0.38;;;11.10;99.90;;;;;;4954321;28;20058;-76
2023/01/11 08:27:10;;;;;;;0.70;0.35;;;11.10;99.90;;;;;;4954588;28;20047;-76
2023/01/11 08:29:38;;;;;;;0.93;0.30;;;11.10;99.90;;;;;;4954526;28;20057;-76
2023/01/11 08:32:05;;;;;;;0.38;0.20;;;11.10;99.90;;;;;;4953581;29;20047;-76
2023/01/11 08:34:33;;;;;;;1.88;0.77;;;11.10;99.90;;;;;;4953935;28;20047;-76
2023/01/11 08:37:01;;;;;;;0.75;0.30;;;11.20;99.90;;;;;;4953886;29;20047;-76
2023/01/11 08:39:29;;;;;;;0.32;0.32;;;11.10;99.90;;;;;;4954022;28;20123;-76
2023/01/11 08:41:57;;;;;;;1.80;0.88;;;11.20;99.90;;;;;;4952809;29;20051;-76
2023/01/11 08:44:24;;;;;;;0.75;0.50;;;11.20;99.90;;;;;;4951265;29;20051;-76
2023/01/11 08:47:00;;;;;;;0.20;0.20;;;11.20;99.90;;;;;;4953872;28;20568;-76
2023/01/11 08:49:26;;;;;;;0.57;0.40;;;11.20;99.90;;;;;;4952206;28;20051;-76
2023/01/11 08:51:53;;;;;;;0.77;0.20;;;11.30;99.90;;;;;;4953069;29;20130;-76
2023/01/11 08:54:19;;;;;;;0.63;0.40;;;11.30;99.90;;;;;;4952710;29;20062;-75
2023/01/11 08:56:46;;;;;;;0.47;0.30;;;11.30;99.90;;;;;;4952248;29;20051;-75
2023/01/11 08:59:13;;;;;;;0.20;0.20;;;11.30;99.90;;;;;;4951583;28;20058;-76
2023/01/11 09:01:40;;;;;;;0.22;0.20;;;11.30;99.90;;;;;;4953609;29;20716;-76
2023/01/11 09:04:06;;;;;;;0.30;0.20;;;11.40;99.90;;;;;;4952551;28;20043;-75
2023/01/11 09:06:49;;;;;;;0.40;0.40;;;11.40;99.90;;;;;;4951831;29;20433;-75
2023/01/11 09:09:16;;;;;;;0.57;0.40;;;11.40;99.90;;;;;;4948134;28;20043;-76
2023/01/11 09:12:01;;;;;;;1.27;0.22;;;11.40;99.90;;;;;;4949453;28;20400;-76
2023/01/11 09:14:31;;;;;;;0.40;0.22;;;11.50;99.90;;;;;;4949093;29;20127;-76
2023/01/11 09:16:57;;;;;;;0.40;0.30;;;11.50;99.90;;;;;;4949905;28;20043;-76
2023/01/11 09:19:24;;;;;;;0.20;0.20;;;11.50;99.90;;;;;;4951863;28;20046;-75
2023/01/11 09:21:54;;;;;;;0.40;0.32;;;11.50;99.90;;;;;;4948654;28;20043;-75
2023/01/11 09:24:21;;;;;;;1.55;0.30;;;11.60;99.90;;;;;;4949264;28;20047;-76
2023/01/11 09:26:48;;;;;;;0.30;0.30;;;11.60;99.90;;;;;;4949973;28;20043;-76
2023/01/11 09:29:15;;;;;;;3.53;0.73;;;11.60;99.90;;;;;;4951253;28;20070;-76
2023/01/11 09:31:42;;;;;;;0.25;0.25;;;11.70;99.90;;;;;;4951268;28;20043;-76
2023/01/11 09:34:11;;;;;;;4.43;0.55;;;11.70;99.90;;;;;;4952415;28;20049;-76
2023/01/11 09:36:39;;;;;;;1.53;0.50;;;11.70;99.90;;;;;;4949219;29;21064;-76
2023/01/11 09:39:10;;;;;;;0.75;0.32;;;11.80;99.90;;;;;;4950990;28;20461;-76
2023/01/11 09:42:05;;;;;;;0.65;0.30;;;11.80;99.90;;;;;;4951873;28;20142;-76
2023/01/11 09:44:34;;;;;;;0.60;0.20;;;11.80;99.90;;;;;;4949102;28;20123;-76
2023/01/11 09:47:13;;;;;;;0.20;0.20;;;11.90;99.90;;;;;;4951355;28;20501;-76
2023/01/11 09:49:46;;;;;;;0.50;0.30;;;11.90;99.90;;;;;;4949861;28;20481;-76
2023/01/11 09:52:29;;;;;;;0.20;0.20;;;11.90;99.90;;;;;;4951690;28;20045;-76
2023/01/11 09:54:58;;;;;;;1.48;0.20;;;12.00;99.90;;;;;;4949714;28;20517;-76
2023/01/11 09:57:49;;;;;;;1.15;0.30;;;12.00;99.90;;;;;;4949437;28;20055;-75
2023/01/11 10:00:32;;;;;;;1.77;0.40;;;12.00;99.90;;;;;;4951058;28;20516;-76
2023/01/11 10:03:20;;;;;;;0.20;0.20;;;12.00;99.90;;;;;;4949341;28;20079;-77
2023/01/11 10:06:05;;;;;;;2.30;0.30;;;12.00;99.90;;;;;;4951213;29;20141;-76
2023/01/11 10:09:09;;;;;;;0.30;0.30;;;11.90;99.90;;;;;;4952552;29;20094;-76
2023/01/11 10:12:07;;;;;;;0.30;0.30;;;11.90;99.90;;;;;;4954729;28;20102;-76
2023/01/11 10:15:12;;;;;;;1.35;0.30;;;11.90;99.90;;;;;;4955516;29;20485;-76
2023/01/11 10:18:21;;;;;;;0.70;0.45;;;11.80;99.90;;;;;;4955425;29;20102;-76
2023/01/11 10:21:14;;;;;;;1.08;0.32;;;11.80;99.90;;;;;;4957011;28;20047;-76
2023/01/11 10:23:52;;;;;;;0.30;0.30;;;11.80;99.90;;;;;;4956321;29;20139;-75
2023/01/11 10:26:31;;;;;;;0.68;0.30;;;11.70;99.90;;;;;;4954826;29;20437;-76
2023/01/11 10:32:31;;;;;;;0.50;0.40;;;11.70;99.90;;;;;;4956382;29;20066;-76
2023/01/11 10:38:57;;;;;;;2.22;0.52;;;11.60;99.90;;;;;;4903859;28;20469;-76
2023/01/11 10:41:14;;;;;;;0.52;0.45;;;11.60;99.90;;;;;;4951786;28;20475;-76
2023/01/11 10:43:46;;;;;;;0.40;0.35;;;11.60;99.90;;;;;;4955954;28;20051;-76
2023/01/11 10:46:20;;;;;;;0.20;0.20;;;11.50;99.90;;;;;;4955943;29;20047;-76
2023/01/11 10:48:49;;;;;;;0.82;0.30;;;11.50;99.90;;;;;;4949895;29;20060;-76
2023/01/11 10:51:40;;;;;;;0.40;0.30;;;11.50;99.90;;;;;;4953886;28;20058;-76
2023/01/11 10:54:15;;;;;;;;;;;11.50;99.90;;;;;;4954523;29;20527;-76
2023/01/11 10:57:12;;;;;;;0.90;0.30;;;11.50;99.90;;;;;;4974061;28;19926;-75
2023/01/11 10:59:59;;;;;;;0.65;0.43;;;11.50;99.90;;;;;;4979156;28;20091;-75
2023/01/11 11:03:02;;;;;;;0.30;0.30;;;11.40;99.90;;;;;;4980511;28;20060;-75
2023/01/11 11:05:43;;;;;;;0.52;0.40;;;11.40;99.90;;;;;;4978862;28;20043;-76
2023/01/11 11:08:18;;;;;;;1.00;0.40;;;11.40;99.90;;;;;;4952251;29;20040;-76
2023/01/11 11:10:48;;;;;;;2.00;0.47;;;11.40;99.90;;;;;;4952566;28;20043;-76
2023/01/11 11:13:35;;;;;;;0.82;0.40;;;11.40;99.90;;;;;;4953755;28;20079;-76
2023/01/11 11:16:23;;;;;;;0.32;0.30;;;11.40;99.90;;;;;;4953539;28;20475;-76
2023/01/11 11:18:51;;;;;;;0.50;0.40;;;11.40;99.90;;;;;;4953757;29;20039;-74
2023/01/11 11:21:22;;;;;;;1.40;0.50;;;11.40;99.90;;;;;;4965076;28;20051;-75
2023/01/11 11:24:02;;;;;;;0.57;0.38;;;11.40;99.90;;;;;;4966595;28;20047;-76
2023/01/11 11:26:38;;;;;;;0.65;0.50;;;11.40;99.90;;;;;;4953356;28;20055;-76
2023/01/11 11:29:07;;;;;;;1.13;0.60;;;11.30;99.90;;;;;;4954151;28;20051;-75
2023/01/11 11:31:37;;;;;;;0.93;0.50;;;11.30;99.90;;;;;;4954881;29;20106;-76
2023/01/11 11:34:18;;;;;;;0.60;0.30;;;11.30;99.90;;;;;;4955169;28;20051;-76
2023/01/11 11:36:48;;;;;;;2.53;0.50;;;11.30;99.90;;;;;;4951254;28;20058;-76
2023/01/11 11:39:29;;;;;;;0.98;0.60;;;11.30;99.90;;;;;;4951761;28;20050;-76
2023/01/11 11:42:13;;;;;;;0.60;0.40;;;11.30;99.90;;;;;;4951220;28;20039;-76
2023/01/11 11:44:40;;;;;;;0.70;0.50;;;11.30;99.90;;;;;;4952713;28;20051;-76
2023/01/11 11:47:16;;;;;;;0.40;0.40;;;11.30;99.90;;;;;;4954468;28;20079;-76
2023/01/11 11:49:43;;;;;;;0.40;0.30;;;11.20;99.90;;;;;;4967976;28;20130;-76
2023/01/11 11:52:16;;;;;;;0.93;0.40;;;11.20;99.90;;;;;;4953262;29;20062;-77
2023/01/11 11:54:55;;;;;;;0.77;0.50;;;11.30;99.90;;;;;;4949901;28;20047;-77
2023/01/11 11:57:24;;;;;;;0.30;0.30;;;11.20;99.90;;;;;;4952876;28;20085;-76
2023/01/11 12:00:34;;;;;;;1.15;0.55;;;11.20;99.90;;;;;;4953210;28;20050;-76
2023/01/11 12:03:13;;;;;;;0.50;0.50;;;11.20;99.90;;;;;;4934805;29;20051;-76
2023/01/11 12:05:49;;;;;;;0.35;0.35;;;11.30;99.90;;;;;;4952284;28;20151;-77
2023/01/11 12:08:17;;;;;;;0.30;0.30;;;11.20;99.90;;;;;;4951261;28;20135;-76
2023/01/11 12:10:59;;;;;;;1.05;0.40;;;11.20;99.90;;;;;;4954140;28;20423;-76
2023/01/11 12:13:38;;;;;;;1.17;0.85;;;11.20;99.90;;;;;;4952255;29;20232;-76
2023/01/11 12:16:16;;;;;;;0.50;0.50;;;11.20;99.90;;;;;;4951494;28;20141;-76
2023/01/11 12:18:43;;;;;;;0.55;0.52;;;11.20;99.90;;;;;;4952140;29;20131;-76
2023/01/11 12:21:20;;;;;;;1.25;0.80;;;11.20;99.90;;;;;;4953360;28;20043;-76
2023/01/11 12:24:06;;;;;;;0.50;0.45;;;11.30;99.90;;;;;;4950909;28;20058;-76
2023/01/11 12:26:45;;;;;;;0.82;0.60;;;11.30;99.90;;;;;;4954034;28;20043;-76
2023/01/11 12:29:45;;;;;;;0.65;0.50;;;11.20;99.90;;;;;;4951110;28;20047;-76
2023/01/11 12:32:41;;;;;;;0.83;0.70;;;11.20;99.90;;;;;;4953352;28;20483;-76
2023/01/11 12:35:24;;;;;;;1.05;0.70;;;11.30;99.90;;;;;;4948996;28;20058;-76
2023/01/11 12:38:14;;;;;;;1.02;0.65;;;11.20;99.90;;;;;;4952779;29;20067;-75
2023/01/11 12:41:11;;;;;;;0.85;0.70;;;11.20;99.90;;;;;;4951371;28;20055;-75
2023/01/11 12:43:57;;;;;;;1.25;0.60;;;11.20;99.90;;;;;;4948495;28;20055;-76
2023/01/11 12:47:08;;;;;;;0.32;0.32;;;11.20;99.90;;;;;;4964862;28;20075;-76
2023/01/11 12:50:17;;;;;;;0.73;0.50;;;11.20;99.90;;;;;;4945327;28;20497;-76
2023/01/11 12:53:28;;;;;;;0.95;0.57;;;11.10;99.90;;;;;;4949742;28;20102;-75
2023/01/11 12:56:18;;;;;;;0.50;0.30;;;11.20;99.90;;;;;;4942284;28;20043;-76
2023/01/11 12:58:54;;;;;;;0.60;0.50;;;11.20;99.90;;;;;;4951278;28;20043;-76
2023/01/11 13:01:55;;;;;;;1.50;0.57;;;11.20;99.90;;;;;;4950218;29;20417;-76
2023/01/11 13:04:52;;;;;;;2.45;0.65;;;11.20;99.90;;;;;;4949741;28;20048;-76
2023/01/11 13:07:29;;;;;;;0.88;0.60;;;11.20;99.90;;;;;;4949850;28;20055;-75
2023/01/11 13:10:04;;;;;;;1.52;0.88;;;11.20;99.90;;;;;;4944773;28;20047;-76
2023/01/11 13:12:47;;;;;;;3.28;1.20;;;11.30;99.90;;;;;;4953396;28;20142;-76
2023/01/11 13:15:44;;;;;;;3.78;1.45;;;11.20;99.90;;;;;;4950899;29;20047;-76
2023/01/11 13:18:37;;;;;;;1.13;0.80;;;11.30;99.90;;;;;;4952866;29;20068;-76
2023/01/11 13:21:28;;;;;;;0.80;0.70;;;11.30;99.90;;;;;;4952054;29;20050;-76
2023/01/11 13:24:02;;;;;;;1.02;0.63;;;11.30;99.90;;;;;;4950302;29;20051;-75
2023/01/11 13:26:38;;;;;;;1.75;0.90;;;11.30;99.90;;;;;;4951721;28;20516;-76
2023/01/11 13:29:28;;;;;;;2.55;1.08;;;11.30;99.90;;;;;;4953003;29;20047;-76
2023/01/11 13:31:58;;;;;;;1.13;0.90;;;11.40;99.90;;;;;;4951158;29;20058;-76
2023/01/11 13:34:37;;;;;;;0.88;0.68;;;11.30;99.90;;;;;;4952861;28;20055;-76
2023/01/11 13:37:14;;;;;;;0.93;0.70;;;11.40;99.90;;;;;;4953503;28;20078;-76
2023/01/11 13:40:08;;;;;;;0.80;0.80;;;11.40;99.90;;;;;;4948416;29;20052;-76
2023/01/11 13:42:40;;;;;;;1.98;0.73;;;11.40;99.90;;;;;;4952372;29;20137;-76
2023/01/11 13:45:25;;;;;;;2.55;1.00;;;11.40;99.90;;;;;;4952639;28;20070;-76
2023/01/11 13:48:24;;;;;;;1.10;0.80;;;11.40;99.90;;;;;;4952062;29;20048;-76
2023/01/11 13:51:03;;;;;;;1.85;1.00;;;11.40;99.90;;;;;;4951683;28;20047;-76
2023/01/11 13:53:47;;;;;;;3.55;1.48;;;11.40;99.90;;;;;;4949256;28;20052;-76
2023/01/11 13:56:24;;;;;;;2.70;1.52;;;11.40;99.90;;;;;;4952502;29;20126;-76
2023/01/11 13:58:54;;;;;;;1.73;1.00;;;11.40;99.90;;;;;;4952450;29;20134;-76